createdAt,value
2023-03-13T00:00:23.485Z,82.57
2023-03-13T00:05:49.936Z,82.80
2023-03-13T00:10:56.326Z,82.50
2023-03-13T00:16:07.555Z,82.14
2023-03-13T00:21:14.486Z,81.76
2023-03-13T00:26:23.729Z,82.33
2023-03-13T00:31:33.955Z,82.17
2023-03-13T00:36:40.550Z,82.54
2023-03-13T00:41:48.304Z,82.20
2023-03-13T00:46:56.224Z,82.52
2023-03-13T00:52:02.555Z,83.20
2023-03-13T00:57:09.358Z,83.54
2023-03-13T01:02:17.566Z,83.37
2023-03-13T01:07:24.089Z,83.49
2023-03-13T01:12:31.319Z,83.62
2023-03-13T01:17:39.387Z,83.90
2023-03-13T01:22:46.178Z,83.62
2023-03-13T01:27:53.389Z,83.70
2023-03-13T01:33:04.004Z,83.68
2023-03-13T01:38:11.284Z,83.65
2023-03-13T01:43:26.816Z,83.92
2023-03-13T01:48:47.971Z,84.06
2023-03-13T01:54:05.029Z,84.34
2023-03-13T01:59:15.978Z,84.15
2023-03-13T02:04:25.669Z,84.18
2023-03-13T02:09:34.244Z,84.57
2023-03-13T02:14:43.619Z,84.45
2023-03-13T02:19:53.613Z,84.31
2023-03-13T02:25:09.409Z,84.15
2023-03-13T02:30:18.240Z,84.31
2023-03-13T02:35:26.214Z,84.68
2023-03-13T02:40:37.201Z,84.73
2023-03-13T02:46:01.586Z,84.65
2023-03-13T02:51:18.122Z,84.40
2023-03-13T02:56:28.898Z,84.44
2023-03-13T03:01:37.268Z,84.54
2023-03-13T03:06:43.840Z,84.72
2023-03-13T03:11:50.851Z,84.71
2023-03-13T03:16:58.838Z,84.90
2023-03-13T03:22:06.669Z,84.76
2023-03-13T03:27:13.891Z,84.46
2023-03-13T03:32:28.513Z,84.75
2023-03-13T03:37:35.470Z,84.83
2023-03-13T03:42:43.846Z,84.76
2023-03-13T03:47:51.984Z,85.08
2023-03-13T03:52:58.677Z,84.62
2023-03-13T03:58:06.080Z,84.74
2023-03-13T04:03:34.509Z,85.26
2023-03-13T04:08:41.412Z,85.10
2023-03-13T04:13:50.481Z,86.05
2023-03-13T04:18:59.088Z,86.03
2023-03-13T04:24:07.460Z,86.58
2023-03-13T04:29:16.086Z,86.93
2023-03-13T04:34:50.783Z,87.83
2023-03-13T04:40:17.902Z,88.21
2023-03-13T04:45:55.267Z,89.25
2023-03-13T04:51:03.968Z,89.63
2023-03-13T04:56:41.778Z,89.86
2023-03-13T05:02:12.233Z,90.17
2023-03-13T05:07:20.903Z,89.66
2023-03-13T05:12:46.691Z,89.68
2023-03-13T05:18:28.917Z,90.37
2023-03-13T05:24:07.135Z,90.35
2023-03-13T05:29:14.058Z,90.38
2023-03-13T05:34:46.762Z,90.60
2023-03-13T05:40:15.974Z,90.78
2023-03-13T05:45:54.732Z,90.68
2023-03-13T05:51:16.894Z,90.96
2023-03-13T05:56:37.687Z,91.64
2023-03-13T06:02:02.454Z,91.95
2023-03-13T06:07:17.684Z,92.38
2023-03-13T06:12:25.569Z,92.84
2023-03-13T06:17:31.960Z,93.13
2023-03-13T06:22:38.812Z,93.59
2023-03-13T06:27:46.924Z,94.09
2023-03-13T06:32:53.574Z,94.45
2023-03-13T06:38:00.299Z,94.78
2023-03-13T06:43:08.419Z,94.91
2023-03-13T06:48:14.950Z,94.59
2023-03-13T06:53:22.592Z,94.96
2023-03-13T06:58:32.784Z,95.04
2023-03-13T07:03:41.719Z,95.07
2023-03-13T07:08:48.847Z,95.38
2023-03-13T07:14:15.200Z,95.46
2023-03-13T07:19:23.372Z,95.31
2023-03-13T07:24:29.905Z,95.71
2023-03-13T07:29:38.114Z,96.05
2023-03-13T07:34:45.683Z,95.78
2023-03-13T07:39:52.376Z,95.74
2023-03-13T07:45:00.409Z,95.53
2023-03-13T07:50:08.302Z,95.20
2023-03-13T07:55:14.781Z,95.04
2023-03-13T08:00:24.609Z,94.17
2023-03-13T08:05:32.127Z,93.92
2023-03-13T08:10:38.679Z,93.86
2023-03-13T08:15:46.429Z,92.99
2023-03-13T08:20:52.821Z,93.05
2023-03-13T08:26:03.136Z,93.39
2023-03-13T08:31:12.984Z,93.74
2023-03-13T08:36:23.539Z,93.37
2023-03-13T08:41:48.361Z,93.75
2023-03-13T08:46:57.326Z,93.79
2023-03-13T08:52:05.796Z,93.51
2023-03-13T08:57:12.260Z,92.35
2023-03-13T09:02:21.589Z,91.96
2023-03-13T09:07:28.248Z,91.04
2023-03-13T09:12:34.671Z,91.20
2023-03-13T09:17:42.813Z,90.79
2023-03-13T09:22:51.271Z,90.35
2023-03-13T09:27:57.774Z,90.23
2023-03-13T09:33:05.794Z,89.41
2023-03-13T09:38:12.437Z,88.71
2023-03-13T09:43:34.820Z,87.87
2023-03-13T09:48:47.670Z,87.93
2023-03-13T09:54:01.492Z,87.52
2023-03-13T09:59:19.106Z,86.99
2023-03-13T10:04:36.118Z,86.80
2023-03-13T10:09:42.827Z,86.94
2023-03-13T10:15:02.226Z,86.44
2023-03-13T10:20:24.862Z,86.53
2023-03-13T10:25:35.394Z,88.04
2023-03-13T10:30:48.865Z,87.84
2023-03-13T10:36:10.860Z,89.34
2023-03-13T10:41:32.808Z,89.25
2023-03-13T10:46:45.367Z,89.25
2023-03-13T10:51:56.244Z,89.71
2023-03-13T10:57:30.530Z,90.10
2023-03-13T11:02:40.466Z,90.27
2023-03-13T11:07:48.686Z,89.80
2023-03-13T11:12:57.446Z,88.19
2023-03-13T11:18:13.089Z,87.32
2023-03-13T11:23:27.376Z,85.69
2023-03-13T11:28:52.346Z,85.23
2023-03-13T11:34:07.631Z,84.52
2023-03-13T11:39:43.028Z,84.38
2023-03-13T11:44:59.955Z,83.02
2023-03-13T11:50:27.901Z,81.54
2023-03-13T11:55:57.656Z,81.99
2023-03-13T12:01:09.782Z,81.78
2023-03-13T12:06:28.798Z,81.43
2023-03-13T12:11:44.218Z,81.54
2023-03-13T12:16:56.194Z,81.79
2023-03-13T12:22:14.853Z,83.37
2023-03-13T12:27:32.976Z,85.12
2023-03-13T12:32:45.346Z,86.15
2023-03-13T12:38:00.100Z,86.84
2023-03-13T12:43:16.324Z,88.37
2023-03-13T12:48:47.078Z,89.82
2023-03-13T12:54:41.970Z,91.03
2023-03-13T12:59:56.190Z,92.09
2023-03-13T13:05:04.571Z,92.82
2023-03-13T13:10:25.462Z,93.87
2023-03-13T13:15:33.533Z,94.43
2023-03-13T13:20:47.422Z,95.14
2023-03-13T13:25:55.822Z,95.13
2023-03-13T13:31:24.461Z,95.74
2023-03-13T13:36:44.949Z,96.24
2023-03-13T13:41:51.645Z,96.88
2023-03-13T13:47:02.367Z,96.64
2023-03-13T13:52:43.886Z,97.05
2023-03-13T13:57:54.127Z,97.02
2023-03-13T14:03:00.895Z,97.29
2023-03-13T14:08:19.463Z,97.50
2023-03-13T14:13:26.407Z,97.91
2023-03-13T14:18:33.730Z,98.05
2023-03-13T14:23:45.022Z,97.94
2023-03-13T14:28:54.282Z,98.04
2023-03-13T14:34:02.665Z,98.36
2023-03-13T14:39:21.790Z,97.94
2023-03-13T14:44:32.605Z,97.65
2023-03-13T14:49:39.774Z,97.18
2023-03-13T14:54:58.250Z,97.38
2023-03-13T15:00:36.694Z,97.46
2023-03-13T15:05:43.302Z,97.49
2023-03-13T15:10:52.346Z,97.35
2023-03-13T15:15:59.063Z,97.52
2023-03-13T15:21:27.826Z,97.38
2023-03-13T15:26:35.936Z,97.48
2023-03-13T15:31:42.881Z,97.04
2023-03-13T15:36:49.675Z,97.09
2023-03-13T15:41:57.559Z,96.43
2023-03-13T15:47:04.454Z,96.23
2023-03-13T15:52:19.356Z,95.78
2023-03-13T15:57:29.475Z,95.26
2023-03-13T16:02:36.030Z,95.67
2023-03-13T16:07:42.621Z,95.53
2023-03-13T16:12:50.600Z,95.69
2023-03-13T16:17:57.127Z,95.21
2023-03-13T16:23:04.880Z,94.58
2023-03-13T16:28:16.330Z,94.65
2023-03-13T16:33:23.658Z,94.39
2023-03-13T16:38:30.744Z,93.91
2023-03-13T16:43:39.106Z,92.90
2023-03-13T16:48:47.109Z,92.93
2023-03-13T16:53:56.689Z,92.37
2023-03-13T16:59:09.074Z,92.54
2023-03-13T17:04:16.723Z,92.04
2023-03-13T17:09:23.400Z,91.88
2023-03-13T17:14:33.609Z,91.58
2023-03-13T17:19:40.886Z,91.01
2023-03-13T17:24:50.325Z,90.78
2023-03-13T17:30:00.417Z,91.04
2023-03-13T17:35:08.795Z,90.32
2023-03-13T17:40:22.647Z,89.47
2023-03-13T17:45:31.336Z,89.53
2023-03-13T17:50:40.836Z,89.69
2023-03-13T17:55:49.258Z,89.08
2023-03-13T18:00:59.236Z,89.09
2023-03-13T18:06:16.640Z,89.07
2023-03-13T18:11:27.115Z,88.69
2023-03-13T18:16:42.870Z,88.47
2023-03-13T18:21:53.607Z,88.45
2023-03-13T18:27:03.595Z,88.30
2023-03-13T18:32:15.984Z,89.00
2023-03-13T18:37:29.363Z,88.66
2023-03-13T18:42:38.320Z,88.58
2023-03-13T18:47:53.302Z,88.28
2023-03-13T18:53:05.106Z,88.19
2023-03-13T18:58:15.824Z,88.37
2023-03-13T19:03:29.665Z,88.54
2023-03-13T19:08:40.610Z,88.49
2023-03-13T19:13:52.625Z,88.80
2023-03-13T19:19:06.015Z,88.73
2023-03-13T19:24:17.885Z,88.93
2023-03-13T19:29:30.444Z,88.40
2023-03-13T19:34:42.006Z,87.65
2023-03-13T19:39:54.598Z,87.58
2023-03-13T19:45:06.810Z,86.70
2023-03-13T19:50:28.741Z,86.76
2023-03-13T19:55:37.979Z,85.57
2023-03-13T20:00:48.142Z,85.63
2023-03-13T20:05:59.550Z,84.93
2023-03-13T20:11:08.998Z,84.70
2023-03-13T20:16:18.864Z,84.90
2023-03-13T20:21:33.167Z,85.33
2023-03-13T20:26:45.289Z,85.23
2023-03-13T20:31:53.816Z,85.02
2023-03-13T20:37:05.295Z,84.96
2023-03-13T20:42:18.336Z,84.41
2023-03-13T20:47:29.160Z,84.56
2023-03-13T20:52:43.159Z,84.63
2023-03-13T20:57:54.057Z,84.33
2023-03-13T21:03:04.836Z,84.08
2023-03-13T21:08:15.069Z,83.54
2023-03-13T21:13:24.033Z,83.81
2023-03-13T21:18:32.741Z,84.40
2023-03-13T21:23:45.923Z,84.26
2023-03-13T21:28:54.798Z,84.31
2023-03-13T21:34:02.564Z,84.56
2023-03-13T21:39:12.718Z,84.45
2023-03-13T21:44:20.069Z,84.67
2023-03-13T21:49:27.045Z,84.96
2023-03-13T21:54:35.810Z,84.38
2023-03-13T21:59:43.445Z,84.05
2023-03-13T22:04:51.304Z,83.90
2023-03-13T22:10:00.498Z,84.27
2023-03-13T22:15:08.813Z,83.57
2023-03-13T22:20:15.887Z,84.32
2023-03-13T22:25:24.289Z,83.75
2023-03-13T22:30:30.876Z,83.37
2023-03-13T22:35:40.061Z,83.07
2023-03-13T22:40:48.814Z,83.06
2023-03-13T22:45:55.996Z,82.47
2023-03-13T22:51:08.462Z,82.98
2023-03-13T22:56:17.211Z,82.68
2023-03-13T23:01:23.708Z,82.82
2023-03-13T23:06:30.427Z,81.88
2023-03-13T23:11:38.795Z,82.33
2023-03-13T23:16:45.860Z,82.80
2023-03-13T23:21:52.795Z,82.74
2023-03-13T23:27:01.004Z,82.63
2023-03-13T23:32:07.657Z,82.13
2023-03-13T23:37:14.127Z,82.62
2023-03-13T23:42:21.882Z,82.54
2023-03-13T23:47:31.843Z,82.29
2023-03-13T23:52:39.180Z,82.54
2023-03-13T23:57:51.022Z,82.04
